Thursday, November 23, 2017, 7:17 PM EST
Back to Local

KPOU, Poughkeepsie Dutchess Cty

Location: Wappingers Falls, NY, United States Lat: 41.633
Local Time: 7:17 PM EST ( 0:17 GMT) Lon: -73.883
Time Zone: US/Eastern Elev: 167 ft

Show me the last for .
Show Decoded

2017-11-23 18:53 METAR KPOU 232353Z 00000KT 10SM CLR M02/M07 A2999 RMK AO2 SLP155 T10171067 10061
                 21017 50001 =
2017-11-23 17:53 METAR KPOU 232253Z 00000KT 10SM CLR 00/M07 A3000 RMK AO2 SLP156 T00001072 =
2017-11-23 16:53 METAR KPOU 232153Z 00000KT 10SM CLR 02/M07 A3000 RMK AO2 SLP157 T00171067 =
2017-11-23 15:53 METAR KPOU 232053Z 00000KT 10SM CLR 04/M09 A2999 RMK AO2 SLP153 T00441089 56018
                 =
2017-11-23 14:53 METAR KPOU 231953Z 00000KT 10SM CLR 06/M08 A3000 RMK AO2 SLP155 T00561083 =
2017-11-23 13:53 METAR KPOU 231853Z 21003KT 10SM CLR 05/M08 A3001 RMK AO2 SLP161 T00501083 =
2017-11-23 12:53 METAR KPOU 231753Z 33004KT 10SM CLR 04/M08 A3004 RMK AO2 SLP171 T00441083 10044
                 21061 58021 =
2017-11-23 11:53 METAR KPOU 231653Z 02005KT 10SM CLR 04/M07 A3006 RMK AO2 SLP176 T00391072 =
2017-11-23 10:53 METAR KPOU 231553Z 27004KT 10SM CLR 02/M08 A3009 RMK AO2 SLP187 T00221078 =
2017-11-23 09:53 METAR KPOU 231453Z 29005KT 10SM CLR 01/M07 A3010 RMK AO2 SLP192 T00111072 50003
                 =
2017-11-23 08:53 METAR KPOU 231353Z 00000KT 10SM CLR M01/M07 A3011 RMK AO2 SLP193 T10061072 =
2017-11-23 07:53 METAR KPOU 231253Z 00000KT 10SM CLR M04/M07 A3011 RMK AO2 SLP194 T10391067 =
2017-11-23 06:53 METAR KPOU 231153Z 00000KT 10SM CLR M04/M08 A3009 RMK AO2 SLP189 70003 T10441078
                 10000 21067 55002 =
2017-11-23 05:53 METAR KPOU 231053Z 31004KT 10SM CLR M04/M08 A3009 RMK AO2 SLP187 T10391078 =
2017-11-23 04:53 METAR KPOU 230953Z 04003KT 10SM CLR M04/M08 A3008 RMK AO2 SLP185 T10441078 =
2017-11-23 03:53 METAR KPOU 230853Z 30005KT 10SM CLR M02/M08 A3010 RMK AO2 SLP190 T10171083 53008
                 =
2017-11-23 02:53 METAR KPOU 230753Z 31006KT 10SM CLR M01/M08 A3008 RMK AO2 SLP183 T10111078 =
2017-11-23 01:53 METAR KPOU 230653Z 31005KT 10SM CLR M01/M07 A3007 RMK AO2 SLP179 T10111072 =
2017-11-23 00:53 METAR KPOU 230553Z 29004KT 10SM CLR 00/M07 A3007 RMK AO2 SLP181 T00001067 10044
                 21006 53007 =
2017-11-22 23:53 METAR KPOU 230453Z 30004KT 10SM CLR 01/M07 A3006 RMK AO2 SLP177 T00061067
                 400831006 =
2017-11-22 22:53 METAR KPOU 230353Z 29007KT 10SM SCT045 02/M06 A3006 RMK AO2 SLP177 T00171061 =
2017-11-22 21:53 METAR KPOU 230253Z 31006KT 10SM OVC044 03/M06 A3005 RMK AO2 SLP174 T00281056
                 53011 =
2017-11-22 20:53 METAR KPOU 230153Z 32009KT 10SM FEW048 03/M06 A3004 RMK AO2 SLP170 T00331056 =
2017-11-22 19:53 METAR KPOU 230053Z 32009KT 10SM CLR 03/M06 A3003 RMK AO2 SLP166 T00331056 =

Support USWX by starting your Amazon purchase here.